Time;durP1;ratioP1;P1;durP2;ratioP2;P2;SDS_P1;SDS_P2;PMS_P1;PMS_P2;Temp;Humidity;BMP_temperature;BMP_pressure;BME280_temperature;BME280_humidity;BME280_pressure;Samples;Min_cycle;Max_cycle;Signal;HPM_P1;HPM_P2
2024/01/09 00:00:38;;;;;;;6.50;1.98;;;;;;;;;;5030284;28;20526;-61
2024/01/09 00:03:05;;;;;;;3.70;1.65;;;;;;;;;;5033694;28;20722;-61
2024/01/09 00:05:31;;;;;;;3.00;1.95;;;;;;;;;;5023545;28;20099;-61
2024/01/09 00:07:57;;;;;;;3.45;1.83;;;;;;;;;;5025391;28;20136;-60
2024/01/09 00:10:23;;;;;;;4.78;3.08;;;;;;;;;;5029720;28;20406;-61
2024/01/09 00:12:49;;;;;;;4.82;1.90;;;;;;;;;;5032941;28;20032;-61
2024/01/09 00:15:14;;;;;;;4.47;1.85;;;;;;;;;;5035845;28;20053;-60
2024/01/09 00:17:43;;;;;;;2.20;1.85;;;;;;;;;;5032423;28;20045;-61
2024/01/09 00:20:10;;;;;;;3.55;2.20;;;;;;;;;;5039350;28;20341;-61
2024/01/09 00:22:36;;;;;;;3.00;1.70;;;;;;;;;;5038182;28;20049;-60
2024/01/09 00:25:02;;;;;;;4.25;1.73;;;;;;;;;;5036128;28;20572;-61
2024/01/09 00:27:28;;;;;;;4.45;1.85;;;;;;;;;;5034934;28;20083;-60
2024/01/09 00:29:54;;;;;;;2.60;1.65;;;;;;;;;;5036420;28;20559;-61
2024/01/09 00:32:20;;;;;;;2.92;2.05;;;;;;;;;;5037764;28;20045;-62
2024/01/09 00:34:46;;;;;;;4.32;1.80;;;;;;;;;;5036975;28;20041;-61
2024/01/09 00:37:12;;;;;;;3.65;2.05;;;;;;;;;;5036519;28;20036;-62
2024/01/09 00:39:38;;;;;;;2.92;1.77;;;;;;;;;;5038747;28;20033;-62
2024/01/09 00:42:04;;;;;;;3.05;2.53;;;;;;;;;;5021816;28;20040;-61
2024/01/09 00:44:30;;;;;;;3.20;1.77;;;;;;;;;;5032158;28;20045;-61
2024/01/09 00:46:56;;;;;;;3.28;1.40;;;;;;;;;;5016348;28;20048;-61
2024/01/09 00:49:22;;;;;;;2.08;1.60;;;;;;;;;;5040798;28;20517;-61
2024/01/09 00:51:48;;;;;;;2.53;1.77;;;;;;;;;;5037113;28;20033;-61
2024/01/09 00:54:14;;;;;;;2.80;1.50;;;;;;;;;;5035838;28;20147;-61
2024/01/09 00:56:40;;;;;;;2.78;2.00;;;;;;;;;;5034310;28;20051;-61
2024/01/09 00:59:06;;;;;;;2.35;1.85;;;;;;;;;;5033038;28;20045;-61
2024/01/09 01:01:32;;;;;;;4.00;1.95;;;;;;;;;;5038327;28;20274;-61
2024/01/09 01:03:58;;;;;;;2.92;1.90;;;;;;;;;;5036961;28;20086;-61
2024/01/09 01:06:24;;;;;;;2.13;1.70;;;;;;;;;;5034090;28;20376;-61
2024/01/09 01:08:50;;;;;;;3.97;1.88;;;;;;;;;;5016860;28;20045;-60
2024/01/09 01:11:16;;;;;;;3.15;1.80;;;;;;;;;;5031928;28;20171;-61
2024/01/09 01:13:42;;;;;;;2.95;1.80;;;;;;;;;;5028962;28;20037;-61
2024/01/09 01:16:08;;;;;;;3.35;1.80;;;;;;;;;;5035991;28;20044;-61
2024/01/09 01:18:34;;;;;;;3.83;1.90;;;;;;;;;;5033474;28;20041;-61
2024/01/09 01:21:00;;;;;;;2.35;1.55;;;;;;;;;;5031038;28;20041;-61
2024/01/09 01:23:26;;;;;;;3.10;1.83;;;;;;;;;;5034272;28;20037;-62
2024/01/09 01:25:52;;;;;;;2.22;1.65;;;;;;;;;;5038444;28;20510;-61
2024/01/09 01:28:18;;;;;;;4.45;1.60;;;;;;;;;;5039516;28;20044;-61
2024/01/09 01:30:44;;;;;;;2.72;2.13;;;;;;;;;;5037024;28;20033;-60
2024/01/09 01:33:10;;;;;;;2.53;1.67;;;;;;;;;;5038626;28;20075;-62
2024/01/09 01:35:36;;;;;;;2.58;1.50;;;;;;;;;;5040041;28;20081;-61
2024/01/09 01:38:02;;;;;;;5.28;1.75;;;;;;;;;;5040935;28;20041;-61
2024/01/09 01:40:28;;;;;;;4.38;1.60;;;;;;;;;;5038175;28;20481;-60
2024/01/09 01:42:58;;;;;;;2.45;1.83;;;;;;;;;;5038975;28;20037;-60
2024/01/09 01:45:24;;;;;;;3.35;1.63;;;;;;;;;;5039731;28;20041;-60
2024/01/09 01:47:51;;;;;;;3.42;2.08;;;;;;;;;;5040338;28;20038;-60
2024/01/09 01:50:17;;;;;;;3.47;2.40;;;;;;;;;;5033904;28;20075;-60
2024/01/09 01:52:45;;;;;;;1.98;1.48;;;;;;;;;;5039879;28;20073;-60
2024/01/09 01:55:12;;;;;;;2.58;1.63;;;;;;;;;;5032202;28;20049;-60
2024/01/09 01:57:39;;;;;;;2.78;1.52;;;;;;;;;;5030760;28;20056;-60
2024/01/09 02:00:05;;;;;;;3.05;1.92;;;;;;;;;;5034362;28;20080;-60
2024/01/09 02:02:32;;;;;;;2.50;1.88;;;;;;;;;;5014229;28;20171;-60
2024/01/09 02:04:58;;;;;;;2.35;1.58;;;;;;;;;;5039823;28;20037;-60
2024/01/09 02:07:26;;;;;;;1.80;1.63;;;;;;;;;;5032817;28;20053;-59
2024/01/09 02:09:53;;;;;;;2.15;1.40;;;;;;;;;;5035040;28;20061;-60
2024/01/09 02:12:19;;;;;;;2.08;1.50;;;;;;;;;;5034765;28;20043;-61
2024/01/09 02:14:45;;;;;;;3.88;1.95;;;;;;;;;;5036179;28;20868;-60
2024/01/09 02:17:12;;;;;;;3.03;1.92;;;;;;;;;;5031437;28;20032;-60
2024/01/09 02:19:38;;;;;;;1.95;1.23;;;;;;;;;;5032133;28;20045;-61
2024/01/09 02:22:04;;;;;;;2.38;1.85;;;;;;;;;;5033947;28;20047;-60
2024/01/09 02:24:30;;;;;;;1.95;1.50;;;;;;;;;;5030595;28;20537;-59
2024/01/09 02:27:09;;;;;;;2.55;1.45;;;;;;;;;;5033928;28;20428;-61
2024/01/09 02:29:37;;;;;;;2.85;1.70;;;;;;;;;;5033075;28;20091;-61
2024/01/09 02:32:03;;;;;;;4.63;1.88;;;;;;;;;;5034468;28;20037;-60
2024/01/09 02:34:30;;;;;;;4.25;1.60;;;;;;;;;;5037269;28;20482;-60
2024/01/09 02:36:56;;;;;;;2.65;1.42;;;;;;;;;;5033708;28;20060;-60
2024/01/09 02:39:22;;;;;;;2.63;1.70;;;;;;;;;;5035337;28;20064;-61
2024/01/09 02:41:48;;;;;;;2.45;1.30;;;;;;;;;;5032369;28;20124;-60
2024/01/09 02:44:14;;;;;;;2.72;1.50;;;;;;;;;;5031828;28;20086;-60
2024/01/09 02:46:40;;;;;;;1.73;1.63;;;;;;;;;;5031341;28;20391;-60
2024/01/09 02:49:06;;;;;;;3.60;1.48;;;;;;;;;;5034248;28;20041;-60
2024/01/09 02:51:32;;;;;;;2.55;1.20;;;;;;;;;;5028843;28;20067;-60
2024/01/09 02:53:58;;;;;;;2.13;1.73;;;;;;;;;;5030155;28;20033;-60
2024/01/09 02:56:24;;;;;;;2.28;1.45;;;;;;;;;;5034969;28;20045;-60
2024/01/09 02:58:50;;;;;;;2.40;1.35;;;;;;;;;;5029744;28;20045;-60
2024/01/09 03:01:16;;;;;;;3.55;1.98;;;;;;;;;;5029295;28;20056;-60
2024/01/09 03:03:42;;;;;;;2.60;1.77;;;;;;;;;;5030907;28;20098;-60
2024/01/09 03:06:08;;;;;;;1.92;1.17;;;;;;;;;;5032909;28;20063;-59
2024/01/09 03:08:34;;;;;;;2.10;1.20;;;;;;;;;;5029166;28;20049;-60
2024/01/09 03:11:00;;;;;;;2.60;1.15;;;;;;;;;;5028178;28;20090;-60
2024/01/09 03:13:26;;;;;;;1.75;1.38;;;;;;;;;;5030192;28;20036;-60
2024/01/09 03:15:52;;;;;;;1.58;1.02;;;;;;;;;;5033552;28;20041;-60
2024/01/09 03:18:18;;;;;;;2.15;1.20;;;;;;;;;;5033045;28;20060;-60
2024/01/09 03:20:44;;;;;;;2.65;1.40;;;;;;;;;;5035473;28;20613;-60
2024/01/09 03:23:10;;;;;;;1.38;1.00;;;;;;;;;;5033436;28;20048;-60
2024/01/09 03:25:36;;;;;;;2.80;1.10;;;;;;;;;;5028563;28;20677;-60
2024/01/09 03:28:02;;;;;;;2.35;1.40;;;;;;;;;;5033817;28;20041;-60
2024/01/09 03:30:29;;;;;;;1.30;1.00;;;;;;;;;;5032157;28;20033;-60
2024/01/09 03:32:56;;;;;;;1.30;1.10;;;;;;;;;;5032338;28;20037;-60
2024/01/09 03:35:22;;;;;;;2.70;1.35;;;;;;;;;;5035048;28;20049;-60
2024/01/09 03:37:48;;;;;;;3.67;1.50;;;;;;;;;;5031461;28;20048;-60
2024/01/09 03:40:14;;;;;;;2.40;1.13;;;;;;;;;;5038124;28;20091;-60
2024/01/09 03:42:40;;;;;;;1.35;1.10;;;;;;;;;;5036630;28;20041;-60
2024/01/09 03:45:07;;;;;;;1.75;1.13;;;;;;;;;;5037575;28;20040;-60
2024/01/09 03:47:33;;;;;;;2.45;1.50;;;;;;;;;;5036614;28;20049;-60
2024/01/09 03:49:59;;;;;;;2.95;1.65;;;;;;;;;;5036622;28;20082;-60
2024/01/09 03:52:25;;;;;;;1.95;1.10;;;;;;;;;;5039233;28;20115;-60
2024/01/09 03:54:51;;;;;;;1.67;1.05;;;;;;;;;;5042494;28;20047;-60
2024/01/09 03:57:17;;;;;;;2.08;1.55;;;;;;;;;;5040766;28;20041;-60
2024/01/09 03:59:43;;;;;;;4.22;1.67;;;;;;;;;;5040158;28;20052;-60
2024/01/09 04:02:09;;;;;;;2.47;1.58;;;;;;;;;;5041493;28;20028;-60
2024/01/09 04:04:38;;;;;;;2.03;1.38;;;;;;;;;;5041578;28;20064;-60
2024/01/09 04:07:04;;;;;;;1.73;1.15;;;;;;;;;;5042297;28;20048;-60
2024/01/09 04:09:30;;;;;;;2.00;1.48;;;;;;;;;;5038023;28;20049;-60
2024/01/09 04:11:56;;;;;;;2.30;1.50;;;;;;;;;;5037778;28;20037;-60
2024/01/09 04:14:22;;;;;;;3.15;2.10;;;;;;;;;;5033117;28;20036;-60
2024/01/09 04:16:48;;;;;;;2.50;2.00;;;;;;;;;;5033896;28;20045;-60
2024/01/09 04:19:14;;;;;;;2.65;1.40;;;;;;;;;;5037924;28;20422;-60
2024/01/09 04:21:40;;;;;;;1.95;1.40;;;;;;;;;;5033794;28;20530;-60
2024/01/09 04:24:06;;;;;;;2.70;2.00;;;;;;;;;;5031964;28;20025;-59
2024/01/09 04:26:32;;;;;;;4.35;2.08;;;;;;;;;;5036247;28;20089;-60
2024/01/09 04:28:58;;;;;;;2.35;1.90;;;;;;;;;;5035953;28;20057;-60
2024/01/09 04:31:24;;;;;;;3.42;1.83;;;;;;;;;;5042016;28;20099;-59
2024/01/09 04:33:50;;;;;;;2.92;1.38;;;;;;;;;;5038972;28;20037;-59
2024/01/09 04:36:17;;;;;;;4.00;1.70;;;;;;;;;;5038720;28;20893;-59
2024/01/09 04:38:43;;;;;;;3.53;1.65;;;;;;;;;;5036450;28;20055;-60
2024/01/09 04:41:14;;;;;;;3.38;1.70;;;;;;;;;;5034467;28;20092;-60
2024/01/09 04:43:40;;;;;;;3.50;2.00;;;;;;;;;;5031994;28;21649;-60
2024/01/09 04:46:06;;;;;;;2.15;1.35;;;;;;;;;;5016016;28;20041;-60
2024/01/09 04:48:32;;;;;;;2.75;2.20;;;;;;;;;;5037186;28;20045;-60
2024/01/09 04:50:58;;;;;;;2.22;1.67;;;;;;;;;;5034139;28;20083;-59
2024/01/09 04:53:24;;;;;;;3.63;2.30;;;;;;;;;;5036120;28;20394;-60
2024/01/09 04:55:50;;;;;;;5.68;2.38;;;;;;;;;;5033789;28;20045;-60
2024/01/09 04:58:16;;;;;;;3.83;2.58;;;;;;;;;;5032564;28;20499;-60
2024/01/09 05:00:42;;;;;;;2.70;2.10;;;;;;;;;;5036857;28;20119;-59
2024/01/09 05:03:08;;;;;;;4.15;2.50;;;;;;;;;;5014826;28;20052;-60
2024/01/09 05:05:34;;;;;;;2.90;1.88;;;;;;;;;;5033917;28;20041;-60
2024/01/09 05:08:00;;;;;;;3.72;2.17;;;;;;;;;;5035652;28;20571;-60
2024/01/09 05:10:26;;;;;;;4.30;2.47;;;;;;;;;;5031952;28;20054;-60
2024/01/09 05:12:52;;;;;;;3.40;2.20;;;;;;;;;;5034562;28;20499;-60
2024/01/09 05:15:18;;;;;;;3.42;2.58;;;;;;;;;;5034445;28;20037;-59
2024/01/09 05:17:44;;;;;;;3.70;2.20;;;;;;;;;;5036733;28;20484;-60
2024/01/09 05:20:10;;;;;;;2.67;1.83;;;;;;;;;;5036277;28;20033;-59
2024/01/09 05:22:36;;;;;;;3.25;2.03;;;;;;;;;;5035597;28;20049;-60
2024/01/09 05:25:03;;;;;;;3.75;2.35;;;;;;;;;;5033839;28;20142;-59
2024/01/09 05:27:29;;;;;;;3.08;2.10;;;;;;;;;;5038525;28;20052;-60
2024/01/09 05:29:55;;;;;;;3.95;2.30;;;;;;;;;;5036388;28;20491;-60
2024/01/09 05:32:21;;;;;;;3.55;2.20;;;;;;;;;;5030339;28;20037;-60
2024/01/09 05:34:47;;;;;;;2.67;2.00;;;;;;;;;;5031931;28;20056;-59
2024/01/09 05:37:13;;;;;;;4.30;2.80;;;;;;;;;;5032907;28;20037;-60
2024/01/09 05:39:42;;;;;;;4.15;2.40;;;;;;;;;;5030772;28;21183;-59
2024/01/09 05:42:09;;;;;;;4.80;2.22;;;;;;;;;;5030635;28;20033;-60
2024/01/09 05:44:34;;;;;;;4.38;2.60;;;;;;;;;;5034220;28;20507;-60
2024/01/09 05:47:00;;;;;;;4.65;2.85;;;;;;;;;;5032969;28;20034;-60
2024/01/09 05:49:26;;;;;;;4.38;2.30;;;;;;;;;;5031854;28;20132;-59
2024/01/09 05:51:52;;;;;;;5.65;2.05;;;;;;;;;;5034867;28;20042;-59
2024/01/09 05:54:18;;;;;;;2.75;2.25;;;;;;;;;;5032413;28;20033;-59
2024/01/09 05:56:44;;;;;;;3.40;2.15;;;;;;;;;;5036387;28;20072;-60
2024/01/09 05:59:10;;;;;;;2.40;2.20;;;;;;;;;;5031829;28;20453;-59
2024/01/09 06:01:36;;;;;;;3.35;2.33;;;;;;;;;;5032552;28;20048;-60
2024/01/09 06:04:02;;;;;;;4.30;2.53;;;;;;;;;;5032436;28;20447;-60
2024/01/09 06:06:28;;;;;;;6.10;2.72;;;;;;;;;;5031744;28;20110;-60
2024/01/09 06:08:54;;;;;;;3.92;2.28;;;;;;;;;;5035244;28;20140;-60
2024/01/09 06:11:20;;;;;;;3.90;2.63;;;;;;;;;;5030327;28;20202;-60
2024/01/09 06:13:46;;;;;;;4.40;2.60;;;;;;;;;;5031397;28;20044;-59
2024/01/09 06:16:12;;;;;;;5.32;3.22;;;;;;;;;;5031009;28;20561;-59
2024/01/09 06:18:38;;;;;;;4.90;3.58;;;;;;;;;;5034945;28;20045;-60
2024/01/09 06:21:04;;;;;;;3.65;2.88;;;;;;;;;;5032520;28;20392;-59
2024/01/09 06:23:30;;;;;;;4.32;2.53;;;;;;;;;;5032083;28;20041;-59
2024/01/09 06:25:56;;;;;;;4.45;2.95;;;;;;;;;;5034258;28;20088;-59
2024/01/09 06:28:23;;;;;;;3.85;2.75;;;;;;;;;;5033784;28;20079;-60
2024/01/09 06:30:49;;;;;;;4.82;2.92;;;;;;;;;;5033726;28;20048;-60
2024/01/09 06:33:15;;;;;;;3.45;2.42;;;;;;;;;;5040039;28;20044;-59
2024/01/09 06:35:41;;;;;;;4.25;2.97;;;;;;;;;;5033712;28;20056;-60
2024/01/09 06:38:08;;;;;;;3.83;2.60;;;;;;;;;;5033426;28;20044;-59
2024/01/09 06:40:34;;;;;;;2.75;2.25;;;;;;;;;;5036968;28;20254;-60
2024/01/09 06:43:00;;;;;;;4.05;2.65;;;;;;;;;;5036863;28;20033;-60
2024/01/09 06:45:26;;;;;;;5.25;2.63;;;;;;;;;;5032341;28;20487;-58
2024/01/09 06:47:52;;;;;;;3.33;2.58;;;;;;;;;;5031468;28;20098;-59
2024/01/09 06:50:18;;;;;;;3.35;2.45;;;;;;;;;;5035356;28;20132;-59
2024/01/09 06:52:44;;;;;;;5.82;3.45;;;;;;;;;;5033251;28;20597;-59
2024/01/09 06:55:10;;;;;;;5.78;3.15;;;;;;;;;;5015720;28;20049;-60
2024/01/09 06:57:36;;;;;;;3.92;2.50;;;;;;;;;;5034943;28;20107;-60
2024/01/09 07:00:04;;;;;;;5.80;2.90;;;;;;;;;;5033493;28;20495;-59
2024/01/09 07:02:30;;;;;;;4.57;2.83;;;;;;;;;;5036364;28;20518;-60
2024/01/09 07:04:56;;;;;;;3.67;2.80;;;;;;;;;;5032179;28;20429;-60
2024/01/09 07:07:23;;;;;;;4.63;3.75;;;;;;;;;;5029769;28;20504;-59
2024/01/09 07:09:49;;;;;;;4.47;2.83;;;;;;;;;;5032453;28;20115;-60
2024/01/09 07:12:16;;;;;;;3.53;2.70;;;;;;;;;;5034451;28;20514;-59
2024/01/09 07:14:43;;;;;;;4.75;3.10;;;;;;;;;;5028676;28;20422;-59
2024/01/09 07:17:09;;;;;;;4.45;3.17;;;;;;;;;;5033695;28;20048;-60
2024/01/09 07:19:35;;;;;;;4.28;3.17;;;;;;;;;;5033089;28;20336;-59
2024/01/09 07:22:01;;;;;;;3.85;3.15;;;;;;;;;;5033622;28;20068;-59
2024/01/09 07:24:27;;;;;;;2.65;2.00;;;;;;;;;;5029996;28;20088;-60
2024/01/09 07:26:53;;;;;;;4.28;3.10;;;;;;;;;;5026111;28;20040;-59
2024/01/09 07:29:19;;;;;;;3.80;2.53;;;;;;;;;;5031313;28;20060;-60
2024/01/09 07:31:47;;;;;;;3.17;1.90;;;;;;;;;;5029193;28;20049;-61
2024/01/09 07:34:14;;;;;;;4.13;2.67;;;;;;;;;;5033403;28;20382;-60
2024/01/09 07:36:40;;;;;;;5.15;2.47;;;;;;;;;;5034344;28;20246;-60
2024/01/09 07:39:06;;;;;;;4.75;2.90;;;;;;;;;;5031663;28;20033;-60
2024/01/09 07:41:32;;;;;;;4.53;2.55;;;;;;;;;;5031342;28;20096;-59
2024/01/09 07:43:58;;;;;;;4.63;2.78;;;;;;;;;;5031107;28;20402;-59
2024/01/09 07:46:24;;;;;;;2.97;1.75;;;;;;;;;;5033791;28;20029;-59
2024/01/09 07:48:50;;;;;;;5.55;2.80;;;;;;;;;;5011338;28;20524;-59
2024/01/09 07:51:16;;;;;;;3.40;2.35;;;;;;;;;;5031502;28;20033;-60
2024/01/09 07:53:42;;;;;;;3.88;2.25;;;;;;;;;;5013823;28;20082;-59
2024/01/09 07:56:15;;;;;;;4.43;2.88;;;;;;;;;;5032432;28;20396;-60
2024/01/09 07:58:41;;;;;;;3.58;2.78;;;;;;;;;;5029632;28;20110;-59
2024/01/09 08:01:08;;;;;;;4.07;2.85;;;;;;;;;;5032882;28;20076;-59
2024/01/09 08:03:34;;;;;;;3.03;1.88;;;;;;;;;;5036321;28;20056;-60
2024/01/09 08:06:00;;;;;;;4.05;2.63;;;;;;;;;;5037583;28;20041;-59
2024/01/09 08:08:26;;;;;;;3.90;2.28;;;;;;;;;;5031108;28;20048;-60
2024/01/09 08:10:52;;;;;;;3.03;2.30;;;;;;;;;;5030396;28;20394;-59
2024/01/09 08:13:18;;;;;;;3.28;2.35;;;;;;;;;;5043249;28;20048;-59
2024/01/09 08:15:44;;;;;;;4.07;2.70;;;;;;;;;;5042025;28;20061;-60
2024/01/09 08:18:10;;;;;;;4.80;3.45;;;;;;;;;;5036849;28;20056;-59
2024/01/09 08:20:37;;;;;;;6.28;3.05;;;;;;;;;;5039336;28;20124;-60
2024/01/09 08:23:03;;;;;;;3.00;2.08;;;;;;;;;;5038520;28;20046;-59
2024/01/09 08:25:29;;;;;;;3.40;2.47;;;;;;;;;;5041457;28;20405;-59
2024/01/09 08:27:55;;;;;;;3.85;2.65;;;;;;;;;;5040370;28;20056;-61
2024/01/09 08:30:21;;;;;;;3.72;2.65;;;;;;;;;;5038822;28;20552;-59
2024/01/09 08:32:47;;;;;;;2.42;1.92;;;;;;;;;;5044231;28;20055;-59
2024/01/09 08:35:13;;;;;;;3.78;2.40;;;;;;;;;;5033596;28;20045;-60
2024/01/09 08:37:39;;;;;;;5.63;3.92;;;;;;;;;;5035559;28;20122;-59
2024/01/09 08:40:06;;;;;;;4.28;2.83;;;;;;;;;;5019121;28;20041;-60
2024/01/09 08:42:32;;;;;;;3.50;2.67;;;;;;;;;;5041862;28;20045;-60
2024/01/09 08:44:57;;;;;;;4.10;2.20;;;;;;;;;;5045659;28;20051;-60
2024/01/09 08:47:23;;;;;;;4.10;2.80;;;;;;;;;;5046382;28;20045;-60
2024/01/09 08:49:51;;;;;;;4.68;2.75;;;;;;;;;;5046903;28;20033;-60
2024/01/09 08:52:21;;;;;;;4.38;2.55;;;;;;;;;;5048352;28;20116;-59
2024/01/09 08:54:47;;;;;;;4.20;2.40;;;;;;;;;;5048297;28;20072;-56
2024/01/09 08:57:13;;;;;;;2.97;2.13;;;;;;;;;;5046989;28;20250;-60
2024/01/09 08:59:39;;;;;;;3.72;2.42;;;;;;;;;;5047631;28;20327;-58
2024/01/09 09:02:06;;;;;;;5.05;2.70;;;;;;;;;;5046529;28;20311;-61
2024/01/09 09:04:32;;;;;;;4.93;2.75;;;;;;;;;;5044953;28;20056;-59
2024/01/09 09:06:58;;;;;;;2.83;2.25;;;;;;;;;;5037217;28;20052;-58
2024/01/09 09:09:24;;;;;;;3.30;2.60;;;;;;;;;;5044399;28;20061;-58
2024/01/09 09:11:50;;;;;;;3.65;2.55;;;;;;;;;;5037368;28;20118;-59
2024/01/09 09:14:16;;;;;;;5.43;4.03;;;;;;;;;;5045522;28;20048;-59
2024/01/09 09:16:43;;;;;;;3.78;2.63;;;;;;;;;;5037933;28;20049;-57
2024/01/09 09:19:09;;;;;;;3.83;2.47;;;;;;;;;;5034670;28;20179;-57
2024/01/09 09:21:35;;;;;;;4.80;2.97;;;;;;;;;;5043646;28;20101;-57
2024/01/09 09:24:01;;;;;;;4.72;3.28;;;;;;;;;;5045848;28;20097;-57
2024/01/09 09:26:27;;;;;;;3.42;3.05;;;;;;;;;;5038383;28;20409;-58
2024/01/09 09:28:53;;;;;;;6.00;3.20;;;;;;;;;;5045336;28;20041;-57
2024/01/09 09:31:19;;;;;;;4.80;3.20;;;;;;;;;;5039867;28;20483;-57
2024/01/09 09:33:46;;;;;;;3.38;2.20;;;;;;;;;;5041446;28;20044;-57
2024/01/09 09:36:12;;;;;;;4.40;3.05;;;;;;;;;;5044121;28;20056;-57
2024/01/09 09:38:39;;;;;;;5.47;2.97;;;;;;;;;;5039668;28;20513;-57
2024/01/09 09:41:08;;;;;;;5.05;3.40;;;;;;;;;;5042202;28;20048;-57
2024/01/09 09:43:38;;;;;;;5.05;3.28;;;;;;;;;;5038386;28;20045;-58
2024/01/09 09:46:06;;;;;;;4.53;3.03;;;;;;;;;;5033371;28;20202;-57
2024/01/09 09:48:32;;;;;;;5.60;3.80;;;;;;;;;;5032146;28;20040;-59
2024/01/09 09:50:59;;;;;;;6.35;4.32;;;;;;;;;;5034280;28;20067;-58
2024/01/09 09:53:29;;;;;;;5.90;4.13;;;;;;;;;;5038441;28;20398;-58
2024/01/09 09:55:56;;;;;;;4.88;3.65;;;;;;;;;;5041446;28;20494;-58
2024/01/09 09:58:22;;;;;;;4.97;3.33;;;;;;;;;;5032184;28;20045;-58
2024/01/09 10:00:48;;;;;;;5.47;2.97;;;;;;;;;;5044006;28;20036;-58
2024/01/09 10:03:17;;;;;;;6.50;3.58;;;;;;;;;;5034283;28;20037;-58
2024/01/09 10:05:44;;;;;;;6.10;4.72;;;;;;;;;;5028831;28;20123;-58
2024/01/09 10:08:12;;;;;;;6.75;3.65;;;;;;;;;;5044012;28;20060;-58
2024/01/09 10:10:38;;;;;;;6.13;4.47;;;;;;;;;;5046140;28;20438;-58
2024/01/09 10:13:04;;;;;;;5.43;3.90;;;;;;;;;;5046166;28;20041;-59
2024/01/09 10:15:30;;;;;;;4.72;3.33;;;;;;;;;;5027301;28;20051;-59
2024/01/09 10:17:59;;;;;;;5.18;3.45;;;;;;;;;;5046225;28;20037;-59
2024/01/09 10:20:28;;;;;;;5.85;3.38;;;;;;;;;;5045894;28;20056;-59
2024/01/09 10:22:54;;;;;;;4.28;3.20;;;;;;;;;;5045157;28;20495;-58
2024/01/09 10:25:20;;;;;;;3.00;2.42;;;;;;;;;;5046156;28;20087;-58
2024/01/09 10:27:46;;;;;;;4.22;3.00;;;;;;;;;;5045543;28;20168;-58
2024/01/09 10:30:13;;;;;;;6.70;3.33;;;;;;;;;;5041848;28;20116;-58
2024/01/09 10:32:39;;;;;;;3.53;2.33;;;;;;;;;;5037109;28;20033;-58
2024/01/09 10:35:07;;;;;;;3.33;2.55;;;;;;;;;;5038340;28;20029;-58
2024/01/09 10:37:37;;;;;;;5.45;2.97;;;;;;;;;;5040269;28;20442;-59
2024/01/09 10:40:06;;;;;;;4.20;2.92;;;;;;;;;;5036179;28;20041;-58
2024/01/09 10:42:32;;;;;;;3.60;2.92;;;;;;;;;;5020467;28;20045;-59
2024/01/09 10:44:58;;;;;;;4.43;2.55;;;;;;;;;;5039165;28;20102;-59
2024/01/09 10:47:25;;;;;;;3.53;2.90;;;;;;;;;;5036451;28;20443;-59
2024/01/09 10:49:52;;;;;;;3.95;2.95;;;;;;;;;;5036309;28;20083;-58
2024/01/09 10:52:19;;;;;;;3.63;2.65;;;;;;;;;;5033976;28;20033;-59
2024/01/09 10:54:45;;;;;;;7.30;3.40;;;;;;;;;;5032114;28;20057;-58
2024/01/09 10:57:15;;;;;;;4.43;3.00;;;;;;;;;;5029999;28;20498;-59
2024/01/09 10:59:44;;;;;;;3.10;2.30;;;;;;;;;;5035757;28;20063;-58
2024/01/09 11:02:17;;;;;;;4.82;3.50;;;;;;;;;;5039249;28;20534;-58
2024/01/09 11:04:44;;;;;;;4.20;2.75;;;;;;;;;;5038842;28;20048;-58
2024/01/09 11:07:16;;;;;;;4.88;3.65;;;;;;;;;;5045299;28;20520;-58
2024/01/09 11:09:46;;;;;;;4.93;3.05;;;;;;;;;;5045041;28;20053;-58
2024/01/09 11:12:18;;;;;;;6.20;3.03;;;;;;;;;;5044825;28;20724;-58
2024/01/09 11:14:45;;;;;;;4.07;2.83;;;;;;;;;;5042848;28;20064;-57
2024/01/09 11:17:12;;;;;;;4.00;2.60;;;;;;;;;;5025516;28;20048;-58
2024/01/09 11:19:38;;;;;;;4.20;2.95;;;;;;;;;;5036110;28;20304;-58
2024/01/09 11:22:13;;;;;;;4.30;2.67;;;;;;;;;;5036773;28;20052;-58
2024/01/09 11:24:39;;;;;;;4.25;2.78;;;;;;;;;;5041001;28;20045;-58
2024/01/09 11:27:17;;;;;;;5.32;3.28;;;;;;;;;;5043385;28;20045;-60
2024/01/09 11:29:47;;;;;;;3.30;2.63;;;;;;;;;;5038476;28;20731;-58
2024/01/09 11:32:13;;;;;;;3.28;2.30;;;;;;;;;;5041337;28;20419;-59
2024/01/09 11:34:41;;;;;;;4.65;3.30;;;;;;;;;;5043843;28;20045;-58
2024/01/09 11:37:12;;;;;;;3.95;2.40;;;;;;;;;;5040845;28;20613;-59
2024/01/09 11:39:39;;;;;;;3.17;2.53;;;;;;;;;;5035467;28;20402;-58
2024/01/09 11:42:05;;;;;;;4.43;3.42;;;;;;;;;;5033346;28;20048;-58
2024/01/09 11:44:31;;;;;;;5.25;3.70;;;;;;;;;;5040201;28;20052;-58
2024/01/09 11:46:57;;;;;;;3.25;2.40;;;;;;;;;;5039055;28;20045;-58
2024/01/09 11:49:23;;;;;;;5.05;2.97;;;;;;;;;;5042970;28;20507;-58
2024/01/09 11:51:49;;;;;;;4.75;3.20;;;;;;;;;;5043127;28;20073;-59
2024/01/09 11:54:15;;;;;;;4.88;3.20;;;;;;;;;;5042296;28;20045;-58
2024/01/09 11:56:41;;;;;;;4.80;2.80;;;;;;;;;;5042824;28;20115;-58
2024/01/09 11:59:08;;;;;;;4.90;3.55;;;;;;;;;;5042361;28;20187;-58
2024/01/09 12:01:34;;;;;;;3.72;3.05;;;;;;;;;;5042833;28;20041;-59
2024/01/09 12:04:00;;;;;;;3.80;2.28;;;;;;;;;;5034429;28;20398;-58
2024/01/09 12:06:30;;;;;;;2.97;2.35;;;;;;;;;;5037957;28;20038;-58
2024/01/09 12:08:56;;;;;;;4.25;2.65;;;;;;;;;;5040612;28;20049;-58
2024/01/09 12:11:22;;;;;;;4.68;2.97;;;;;;;;;;5039644;28;20175;-58
2024/01/09 12:13:48;;;;;;;4.40;2.92;;;;;;;;;;5042955;28;20499;-58
2024/01/09 12:16:24;;;;;;;3.60;2.58;;;;;;;;;;5047330;28;20040;-59
2024/01/09 12:18:56;;;;;;;4.30;3.08;;;;;;;;;;5047699;28;20492;-58
2024/01/09 12:21:25;;;;;;;3.70;3.10;;;;;;;;;;5047121;28;20055;-58
2024/01/09 12:23:52;;;;;;;6.63;3.33;;;;;;;;;;5047291;28;20063;-59
2024/01/09 12:26:19;;;;;;;4.65;3.05;;;;;;;;;;5046926;28;20044;-59
2024/01/09 12:28:45;;;;;;;4.32;2.90;;;;;;;;;;5045947;28;20418;-59
2024/01/09 12:31:11;;;;;;;2.85;2.60;;;;;;;;;;5046468;28;20083;-59
2024/01/09 12:33:38;;;;;;;4.80;2.97;;;;;;;;;;5046530;28;20069;-58
2024/01/09 12:36:04;;;;;;;3.70;3.08;;;;;;;;;;5046069;28;20049;-59
2024/01/09 12:38:30;;;;;;;5.72;3.83;;;;;;;;;;5046264;28;20414;-58
2024/01/09 12:41:04;;;;;;;3.72;2.53;;;;;;;;;;5048033;28;20082;-58
2024/01/09 12:43:31;;;;;;;4.57;3.20;;;;;;;;;;5031499;28;20051;-59
2024/01/09 12:45:57;;;;;;;3.75;3.13;;;;;;;;;;5031068;28;20080;-58
2024/01/09 12:48:23;;;;;;;3.10;2.53;;;;;;;;;;5026714;28;20132;-59
2024/01/09 12:51:05;;;;;;;6.22;2.65;;;;;;;;;;5046838;28;20379;-59
2024/01/09 12:53:32;;;;;;;3.58;2.67;;;;;;;;;;5038824;28;20048;-58
2024/01/09 12:56:14;;;;;;;3.65;2.75;;;;;;;;;;5045920;28;20044;-59
2024/01/09 12:58:46;;;;;;;5.55;2.80;;;;;;;;;;5040114;28;20066;-59
2024/01/09 13:01:12;;;;;;;;;;;;;;;;;;5048194;28;20041;-59
2024/01/09 13:03:38;;;;;;;3.10;2.28;;;;;;;;;;5046973;28;19927;-59
2024/01/09 13:06:06;;;;;;;2.78;2.20;;;;;;;;;;5047091;28;20040;-59
2024/01/09 13:08:33;;;;;;;3.38;2.40;;;;;;;;;;5047243;28;20160;-59
2024/01/09 13:11:00;;;;;;;2.55;2.10;;;;;;;;;;5046609;28;20049;-59
2024/01/09 13:13:26;;;;;;;4.10;2.67;;;;;;;;;;5047289;28;20037;-59
2024/01/09 13:15:52;;;;;;;2.22;2.03;;;;;;;;;;5045731;28;20051;-59
2024/01/09 13:18:18;;;;;;;3.13;2.28;;;;;;;;;;5040526;28;20033;-59
2024/01/09 13:20:44;;;;;;;2.97;2.00;;;;;;;;;;5046854;28;20059;-59
2024/01/09 13:23:11;;;;;;;3.53;1.95;;;;;;;;;;5044685;28;20388;-60
2024/01/09 13:25:37;;;;;;;2.90;2.30;;;;;;;;;;5043198;28;20558;-60
2024/01/09 13:28:03;;;;;;;2.97;2.58;;;;;;;;;;5046476;28;20100;-60
2024/01/09 13:30:29;;;;;;;2.47;2.13;;;;;;;;;;5046953;28;20041;-60
2024/01/09 13:32:57;;;;;;;2.78;1.98;;;;;;;;;;5038877;28;20414;-60
2024/01/09 13:35:23;;;;;;;3.30;2.30;;;;;;;;;;5047031;28;20072;-59
2024/01/09 13:37:49;;;;;;;5.50;2.15;;;;;;;;;;5046284;28;20048;-60
2024/01/09 13:40:16;;;;;;;3.20;1.88;;;;;;;;;;5038655;28;20566;-60
2024/01/09 13:42:42;;;;;;;3.25;2.10;;;;;;;;;;5047043;28;20058;-60
2024/01/09 13:45:08;;;;;;;1.42;1.33;;;;;;;;;;5042088;28;20128;-60
2024/01/09 13:47:35;;;;;;;3.08;1.60;;;;;;;;;;5043032;28;20037;-59
2024/01/09 13:50:01;;;;;;;3.47;2.00;;;;;;;;;;5047072;28;20410;-60
2024/01/09 13:52:27;;;;;;;3.05;2.00;;;;;;;;;;5044515;28;20170;-60
2024/01/09 13:54:53;;;;;;;3.53;2.25;;;;;;;;;;5045406;28;20037;-60
2024/01/09 13:57:19;;;;;;;2.65;1.63;;;;;;;;;;5045923;28;20056;-59
2024/01/09 13:59:45;;;;;;;2.17;1.52;;;;;;;;;;5044767;28;20064;-60
2024/01/09 14:02:11;;;;;;;2.30;1.50;;;;;;;;;;5047082;28;20478;-60
2024/01/09 14:04:37;;;;;;;2.25;1.70;;;;;;;;;;5046558;28;20037;-60
2024/01/09 14:07:03;;;;;;;2.30;1.52;;;;;;;;;;5043987;28;20045;-60
2024/01/09 14:09:30;;;;;;;3.60;1.70;;;;;;;;;;5045571;28;20498;-60
2024/01/09 14:11:56;;;;;;;2.45;1.60;;;;;;;;;;5040678;28;20090;-59
2024/01/09 14:14:23;;;;;;;2.38;1.45;;;;;;;;;;5040709;28;20534;-60
2024/01/09 14:16:49;;;;;;;2.88;1.63;;;;;;;;;;5045784;28;20052;-59
2024/01/09 14:19:17;;;;;;;2.50;1.33;;;;;;;;;;5042631;28;20344;-60
2024/01/09 14:21:46;;;;;;;2.15;1.85;;;;;;;;;;5044063;28;20040;-59
2024/01/09 14:24:12;;;;;;;2.28;1.60;;;;;;;;;;5039395;28;20176;-60
2024/01/09 14:26:38;;;;;;;1.90;1.73;;;;;;;;;;5035408;28;20048;-59
2024/01/09 14:29:04;;;;;;;1.77;1.58;;;;;;;;;;5039233;28;20048;-60
2024/01/09 14:31:30;;;;;;;2.60;1.88;;;;;;;;;;5037291;28;20128;-60
2024/01/09 14:33:56;;;;;;;1.98;1.40;;;;;;;;;;5031970;28;20040;-60
2024/01/09 14:36:22;;;;;;;2.17;1.65;;;;;;;;;;5032825;28;20041;-60
2024/01/09 14:38:48;;;;;;;2.00;1.67;;;;;;;;;;5030727;28;20069;-60